Time;durP1;ratioP1;P1;durP2;ratioP2;P2;SDS_P1;SDS_P2;PMS_P1;PMS_P2;Temp;Humidity;BMP_temperature;BMP_pressure;BME280_temperature;BME280_humidity;BME280_pressure;Samples;Min_cycle;Max_cycle;Signal;HPM_P1;HPM_P2
2023/05/18 00:01:07;;;;;;;5.65;3.80;;;;;;;13.52;100.00;100092.84;5034753;28;20128;-75
2023/05/18 00:03:32;;;;;;;8.00;3.88;;;;;;;13.33;100.00;100068.56;5032600;28;20042;-75
2023/05/18 00:06:03;;;;;;;5.75;3.67;;;;;;;13.23;100.00;100052.03;5026004;28;20542;-76
2023/05/18 00:08:37;;;;;;;7.45;4.80;;;;;;;13.58;100.00;100103.28;5034657;28;20083;-77
2023/05/18 00:11:04;;;;;;;5.97;4.32;;;;;;;13.66;100.00;100121.59;5030505;28;20106;-76
2023/05/18 00:13:30;;;;;;;5.53;3.33;;;;;;;13.35;100.00;100060.66;5037047;28;20063;-75
2023/05/18 00:15:55;;;;;;;6.60;4.15;;;;;;;13.65;100.00;100115.47;5031486;28;20421;-74
2023/05/18 00:18:22;;;;;;;5.85;3.40;;;;;;;13.79;100.00;100153.91;5041041;28;20420;-74
2023/05/18 00:20:57;;;;;;;6.70;4.20;;;;;;;13.96;100.00;100180.88;5036458;28;20034;-76
2023/05/18 00:23:29;;;;;;;5.78;3.83;;;;;;;13.22;100.00;100052.03;5040079;28;20087;-76
2023/05/18 00:25:58;;;;;;;7.35;3.40;;;;;;;13.92;100.00;100184.44;5041013;28;20064;-76
2023/05/18 00:28:25;;;;;;;7.93;4.22;;;;;;;14.04;100.00;100192.13;5048744;28;20041;-76
2023/05/18 00:30:50;;;;;;;6.90;3.83;;;;;;;13.13;100.00;100046.91;5034904;28;20136;-76
2023/05/18 00:33:16;;;;;;;6.65;4.35;;;;;;;13.75;100.00;100179.47;5038219;28;20041;-75
2023/05/18 00:35:41;;;;;;;6.13;4.20;;;;;;;13.77;100.00;100174.19;5044699;28;20469;-75
2023/05/18 00:38:07;;;;;;;6.13;4.25;;;;;;;13.73;100.00;100173.34;5038072;28;20454;-74
2023/05/18 00:40:33;;;;;;;6.70;4.55;;;;;;;13.33;100.00;100125.69;5058600;28;20063;-75
2023/05/18 00:42:59;;;;;;;6.53;3.25;;;;;;;13.51;100.00;100143.84;5042260;28;20052;-75
2023/05/18 00:45:25;;;;;;;5.68;3.75;;;;;;;13.61;100.00;100165.66;5036217;28;20052;-74
2023/05/18 00:47:51;;;;;;;4.68;3.80;;;;;;;13.48;100.00;100171.09;5034636;28;20455;-74
2023/05/18 00:50:17;;;;;;;8.52;4.25;;;;;;;13.17;100.00;100098.66;5038004;28;20212;-74
2023/05/18 00:52:45;;;;;;;5.95;4.88;;;;;;;13.36;100.00;100136.16;5030889;28;20033;-75
2023/05/18 00:55:11;;;;;;;8.38;4.30;;;;;;;13.56;100.00;100178.03;5035978;28;20048;-75
2023/05/18 00:57:38;;;;;;;6.80;4.80;;;;;;;13.46;100.00;100170.28;5040028;28;20519;-72
2023/05/18 01:00:06;;;;;;;6.40;4.25;;;;;;;13.39;100.00;100142.28;5030290;28;20037;-74
2023/05/18 01:02:35;;;;;;;9.43;5.70;;;;;;;13.45;100.00;100171.16;5031814;28;20029;-74
2023/05/18 01:05:02;;;;;;;4.95;3.63;;;;;;;13.35;100.00;100145.84;5044707;28;20041;-77
2023/05/18 01:07:28;;;;;;;6.40;4.13;;;;;;;12.66;100.00;100044.13;5037821;28;20436;-73
2023/05/18 01:09:54;;;;;;;6.20;4.45;;;;;;;12.72;100.00;100044.03;5043183;28;20060;-79
2023/05/18 01:12:28;;;;;;;5.88;4.53;;;;;;;12.71;100.00;100041.41;5035790;28;20457;-74
2023/05/18 01:15:09;;;;;;;6.28;4.82;;;;;;;12.75;100.00;100053.66;5004607;28;20095;-74
2023/05/18 01:17:49;;;;;;;8.82;5.57;;;;;;;13.40;100.00;100173.00;5020751;28;20026;-74
2023/05/18 01:20:25;;;;;;;4.75;4.00;;;;;;;13.38;100.00;100180.03;5024124;28;20051;-75
2023/05/18 01:23:19;;;;;;;4.85;3.78;;;;;;;13.30;100.00;100177.53;5003594;28;20412;-76
2023/05/18 01:25:53;;;;;;;6.68;4.75;;;;;;;13.29;100.00;100177.53;5011768;28;20417;-75
2023/05/18 01:28:31;;;;;;;10.05;5.00;;;;;;;12.53;100.00;100046.06;5014316;28;20087;-74
2023/05/18 01:30:57;;;;;;;5.65;3.90;;;;;;;12.65;100.00;100077.47;5006618;28;20053;-76
2023/05/18 01:33:24;;;;;;;6.72;4.28;;;;;;;12.52;100.00;100038.19;5014561;28;20046;-75
2023/05/18 01:35:50;;;;;;;6.78;4.72;;;;;;;13.26;100.00;100181.06;5013555;28;20798;-74
2023/05/18 01:38:24;;;;;;;8.23;5.60;;;;;;;12.57;100.00;100049.50;5016560;28;20034;-75
2023/05/18 01:40:50;;;;;;;7.50;5.13;;;;;;;13.29;100.00;100173.13;5009643;28;20046;-74
2023/05/18 01:43:19;;;;;;;6.82;4.43;;;;;;;13.21;100.00;100172.38;5012713;28;20180;-75
2023/05/18 01:45:47;;;;;;;5.25;4.68;;;;;;;12.65;100.00;100056.41;5017051;28;20084;-75
2023/05/18 01:48:18;;;;;;;8.93;4.28;;;;;;;12.98;100.00;100116.50;5015862;28;20049;-76
2023/05/18 01:50:49;;;;;;;8.70;5.18;;;;;;;13.28;100.00;100168.78;5010975;28;20034;-75
2023/05/18 01:53:29;;;;;;;5.80;4.53;;;;;;;13.21;100.00;100180.28;5013439;28;20137;-75
2023/05/18 01:55:57;;;;;;;6.63;4.68;;;;;;;13.04;100.00;100133.09;5013944;28;20041;-82
2023/05/18 01:58:24;;;;;;;5.97;4.18;;;;;;;12.51;100.00;100039.94;5018442;28;20088;-74
2023/05/18 02:00:50;;;;;;;6.07;3.70;;;;;;;12.69;100.00;100065.16;5020148;28;20509;-75
2023/05/18 02:03:15;;;;;;;11.02;4.85;;;;;;;13.23;100.00;100161.81;5016762;28;20069;-74
2023/05/18 02:05:41;;;;;;;6.88;4.38;;;;;;;13.36;100.00;100173.06;5017202;28;20461;-76
2023/05/18 02:08:06;;;;;;;7.40;4.53;;;;;;;13.21;100.00;100137.25;5008877;28;20124;-75
2023/05/18 02:10:32;;;;;;;5.95;3.95;;;;;;;12.68;100.00;100061.63;5012378;28;20041;-78
2023/05/18 02:12:57;;;;;;;7.13;4.60;;;;;;;13.23;100.00;100188.16;5020920;28;20062;-76
2023/05/18 02:15:23;;;;;;;6.38;4.03;;;;;;;12.52;100.00;100056.59;5025069;28;20052;-76
2023/05/18 02:17:48;;;;;;;4.88;3.17;;;;;;;12.59;100.00;100080.19;5018183;28;20026;-74
2023/05/18 02:20:17;;;;;;;12.80;4.57;;;;;;;13.12;100.00;100171.63;5022679;28;20029;-74
2023/05/18 02:22:43;;;;;;;7.97;4.38;;;;;;;13.03;100.00;100147.16;5005684;28;20038;-75
2023/05/18 02:25:08;;;;;;;5.90;4.07;;;;;;;12.58;100.00;100053.91;5015608;28;20490;-75
2023/05/18 02:27:35;;;;;;;8.88;4.75;;;;;;;13.32;100.00;100188.03;5016480;28;20110;-73
2023/05/18 02:30:04;;;;;;;5.10;3.55;;;;;;;12.74;100.00;100057.19;5015313;28;20042;-73
2023/05/18 02:32:37;;;;;;;9.00;4.03;;;;;;;12.78;100.00;100072.91;5007657;28;20390;-73
2023/05/18 02:35:05;;;;;;;5.93;4.35;;;;;;;13.05;100.00;100100.59;5016214;28;20099;-74
2023/05/18 02:37:33;;;;;;;6.50;3.97;;;;;;;13.54;100.00;100203.53;5019394;28;20132;-76
2023/05/18 02:39:59;;;;;;;6.03;3.58;;;;;;;13.57;100.00;100216.66;5014358;28;20038;-76
2023/05/18 02:42:25;;;;;;;5.80;4.10;;;;;;;12.67;100.00;100080.09;5011031;28;20048;-73
2023/05/18 02:44:50;;;;;;;11.48;4.13;;;;;;;13.38;100.00;100214.31;5016208;28;20033;-74
2023/05/18 02:47:16;;;;;;;5.68;4.10;;;;;;;13.38;100.00;100200.25;5014207;28;20071;-74
2023/05/18 02:49:41;;;;;;;4.75;3.58;;;;;;;12.75;100.00;100093.13;5003851;28;20333;-73
2023/05/18 02:52:06;;;;;;;8.82;4.00;;;;;;;13.37;100.00;100204.66;5005266;28;20056;-74
2023/05/18 02:54:32;;;;;;;5.25;3.17;;;;;;;12.84;100.00;100109.69;5015481;28;20489;-75
2023/05/18 02:56:57;;;;;;;5.45;3.95;;;;;;;12.79;100.00;100106.25;5018023;28;20410;-74
2023/05/18 02:59:23;;;;;;;5.78;3.55;;;;;;;13.51;100.00;100222.91;5021903;28;20034;-75
2023/05/18 03:01:49;;;;;;;5.65;4.15;;;;;;;13.46;100.00;100215.09;5021250;28;20046;-76
2023/05/18 03:04:15;;;;;;;6.32;4.32;;;;;;;13.45;100.00;100215.09;5016722;28;20500;-74
2023/05/18 03:06:41;;;;;;;6.18;3.97;;;;;;;12.81;100.00;100119.41;5017765;28;20042;-74
2023/05/18 03:09:07;;;;;;;5.85;4.07;;;;;;;12.62;100.00;100111.75;5011119;28;20033;-74
2023/05/18 03:11:32;;;;;;;6.95;3.33;;;;;;;13.16;100.00;100197.00;5019197;28;20021;-74
2023/05/18 03:13:58;;;;;;;8.88;4.13;;;;;;;12.71;100.00;100123.88;5019468;28;20053;-76
2023/05/18 03:16:27;;;;;;;6.57;3.50;;;;;;;13.27;100.00;100224.09;5017718;28;20045;-78
2023/05/18 03:18:53;;;;;;;6.18;4.80;;;;;;;13.05;100.00;100195.41;5013279;28;20049;-75
2023/05/18 03:21:20;;;;;;;7.50;4.57;;;;;;;13.37;100.00;100262.66;5007489;28;20054;-78
2023/05/18 03:23:46;;;;;;;6.18;4.35;;;;;;;12.81;100.00;100148.34;5012322;28;20478;-74
2023/05/18 03:26:11;;;;;;;5.68;3.47;;;;;;;13.43;100.00;100278.38;5015043;28;20045;-75
2023/05/18 03:28:40;;;;;;;5.22;3.58;;;;;;;13.33;100.00;100270.63;5007393;28;20056;-74
2023/05/18 03:31:05;;;;;;;7.03;3.40;;;;;;;12.86;100.00;100180.75;5014018;28;20149;-76
2023/05/18 03:33:31;;;;;;;5.20;3.40;;;;;;;13.08;100.00;100234.00;5010080;28;20573;-75
2023/05/18 03:36:01;;;;;;;7.45;3.88;;;;;;;12.81;100.00;100180.81;5014729;28;20402;-74
2023/05/18 03:38:27;;;;;;;19.00;4.90;;;;;;;13.28;100.00;100274.19;5038471;28;20025;-81
2023/05/18 03:40:52;;;;;;;9.90;3.95;;;;;;;12.66;100.00;100152.91;5034591;28;20056;-75
2023/05/18 03:43:18;;;;;;;5.53;3.47;;;;;;;13.29;100.00;100268.00;5035384;28;20053;-76
2023/05/18 03:45:43;;;;;;;7.95;3.63;;;;;;;12.18;100.00;100057.91;5035535;28;20076;-75
2023/05/18 03:48:09;;;;;;;6.05;4.80;;;;;;;12.73;100.00;100161.59;5033587;28;20072;-75
2023/05/18 03:50:34;;;;;;;7.05;4.03;;;;;;;13.36;100.00;100287.25;5033021;28;20072;-76
2023/05/18 03:53:00;;;;;;;5.50;4.22;;;;;;;12.84;100.00;100159.72;5009256;28;20053;-75
2023/05/18 03:55:25;;;;;;;6.70;4.43;;;;;;;13.43;100.00;100270.47;5011580;28;20059;-74
2023/05/18 03:57:52;;;;;;;7.38;4.65;;;;;;;13.00;100.00;100159.50;5022085;28;20132;-73
2023/05/18 04:00:18;;;;;;;7.88;4.18;;;;;;;13.78;100.00;100273.47;5007670;28;20046;-74
2023/05/18 04:02:45;;;;;;;4.80;4.15;;;;;;;13.72;100.00;100277.09;5013758;28;20026;-74
2023/05/18 04:05:10;;;;;;;6.75;4.38;;;;;;;13.26;100.00;100214.47;5011081;28;20054;-74
2023/05/18 04:07:42;;;;;;;6.57;4.85;;;;;;;13.62;100.00;100271.06;5018362;28;20052;-73
2023/05/18 04:10:12;;;;;;;7.13;5.70;;;;;;;13.69;100.00;100263.94;5017394;28;20049;-75
2023/05/18 04:12:38;;;;;;;6.97;4.30;;;;;;;13.70;100.00;100263.91;5011063;28;20049;-76
2023/05/18 04:15:05;;;;;;;6.57;4.32;;;;;;;13.14;100.00;100154.03;5004501;28;20076;-74
2023/05/18 04:17:30;;;;;;;6.22;5.18;;;;;;;12.93;100.00;100108.69;5015997;28;20908;-76
2023/05/18 04:19:56;;;;;;;5.88;3.70;;;;;;;13.20;100.00;100133.72;5011729;28;20077;-74
2023/05/18 04:22:21;;;;;;;7.28;4.32;;;;;;;13.69;100.00;100221.75;5007498;28;20383;-74
2023/05/18 04:24:47;;;;;;;7.78;4.53;;;;;;;13.73;100.00;100242.75;5009937;28;20502;-73
2023/05/18 04:27:14;;;;;;;11.30;4.03;;;;;;;13.86;100.00;100253.13;5014946;28;20085;-74
2023/05/18 04:29:42;;;;;;;5.05;3.72;;;;;;;13.75;100.00;100248.03;5006265;28;20029;-74
2023/05/18 04:32:09;;;;;;;6.07;5.03;;;;;;;12.77;100.00;100094.84;5011522;28;20042;-74
2023/05/18 04:34:36;;;;;;;7.88;4.32;;;;;;;13.85;100.00;100238.19;5015096;28;20050;-76
2023/05/18 04:37:04;;;;;;;5.60;3.67;;;;;;;13.30;100.00;100151.19;5015478;28;20118;-75
2023/05/18 04:39:31;;;;;;;7.43;4.35;;;;;;;13.78;100.00;100228.66;5021454;28;20037;-75
2023/05/18 04:41:57;;;;;;;7.03;4.68;;;;;;;13.98;100.00;100233.56;5016725;28;20038;-75
2023/05/18 04:44:24;;;;;;;5.13;4.00;;;;;;;13.25;100.00;100109.94;5017282;28;20358;-77
2023/05/18 04:46:51;;;;;;;8.02;4.80;;;;;;;14.06;100.00;100223.78;5009900;28;20104;-77
2023/05/18 04:49:20;;;;;;;5.53;3.78;;;;;;;13.72;100.00;100195.34;5008020;28;20065;-74
2023/05/18 04:51:48;;;;;;;8.32;5.05;;;;;;;13.21;100.00;100080.16;5003647;28;20049;-77
2023/05/18 04:54:14;;;;;;;4.70;3.53;;;;;;;14.12;100.00;100226.31;5011761;28;20452;-76
2023/05/18 04:56:40;;;;;;;7.72;4.55;;;;;;;13.72;100.00;100150.53;5035492;28;20022;-75
2023/05/18 04:59:08;;;;;;;6.10;3.67;;;;;;;13.62;100.00;100122.56;5036871;28;20083;-75
2023/05/18 05:01:33;;;;;;;6.95;4.60;;;;;;;13.55;100.00;100118.28;5038512;28;20075;-74
2023/05/18 05:03:59;;;;;;;9.70;4.15;;;;;;;14.13;100.00;100205.16;5038257;28;20041;-79
2023/05/18 05:06:24;;;;;;;9.30;4.10;;;;;;;13.48;100.00;100150.00;5040177;28;20484;-74
2023/05/18 05:08:50;;;;;;;9.80;3.65;;;;;;;14.42;100.00;100255.69;5026669;28;20039;-75
2023/05/18 05:11:16;;;;;;;6.68;4.57;;;;;;;13.66;100.00;100140.06;5031556;28;20040;-77
2023/05/18 05:13:41;;;;;;;5.50;3.17;;;;;;;13.81;100.00;100187.25;5030362;28;20060;-77
2023/05/18 05:16:07;;;;;;;4.63;3.15;;;;;;;14.31;100.00;100277.88;5023320;28;20146;-74
2023/05/18 05:18:32;;;;;;;13.38;3.47;;;;;;;13.76;100.00;100170.66;5019174;28;20610;-72
2023/05/18 05:20:58;;;;;;;4.90;2.75;;;;;;;14.20;100.00;100237.59;5016071;28;20223;-77
2023/05/18 05:23:24;;;;;;;4.57;2.67;;;;;;;14.49;100.00;100273.16;5021096;28;20037;-75
2023/05/18 05:25:49;;;;;;;4.25;2.40;;;;;;;14.24;100.00;100265.69;5022471;28;20454;-79
2023/05/18 05:28:14;;;;;;;4.43;3.03;;;;;;;13.74;100.00;100161.88;5029486;28;20041;-74
2023/05/18 05:30:40;;;;;;;8.65;4.53;;;;;;;14.04;100.00;100207.09;5027627;28;20045;-74
2023/05/18 05:33:06;;;;;;;5.13;2.60;;;;;;;13.83;100.00;100168.78;5027732;28;20083;-78
2023/05/18 05:35:31;;;;;;;5.65;2.83;;;;;;;14.64;100.00;100286.13;5035668;28;20059;-74
2023/05/18 05:37:57;;;;;;;4.10;2.42;;;;;;;14.49;100.00;100300.44;5038330;28;20049;-76
2023/05/18 05:40:23;;;;;;;2.67;1.67;;;;;;;13.82;100.00;100180.25;5026642;28;20103;-75
2023/05/18 05:42:49;;;;;;;5.22;2.67;;;;;;;14.67;100.00;100325.66;5030693;28;20104;-74
2023/05/18 05:45:14;;;;;;;5.90;1.98;;;;;;;14.25;100.00;100211.13;5035354;28;20045;-76
2023/05/18 05:47:40;;;;;;;3.15;1.83;;;;;;;14.69;100.00;100288.66;5028056;28;20140;-74
2023/05/18 05:50:06;;;;;;;3.95;2.42;;;;;;;14.92;100.00;100327.84;5031382;28;20136;-73
2023/05/18 05:52:31;;;;;;;2.90;1.65;;;;;;;15.22;100.00;100326.38;5037528;28;20038;-77
2023/05/18 05:54:57;;;;;;;8.23;2.53;;;;;;;14.52;100.00;100217.66;5038388;28;20186;-75
2023/05/18 05:57:22;;;;;;;3.30;1.67;;;;;;;14.85;100.00;100262.84;5031639;28;20045;-75
2023/05/18 05:59:47;;;;;;;2.60;1.33;;;;;;;15.27;100.00;100350.94;5043673;28;20032;-75
2023/05/18 06:02:13;;;;;;;2.78;1.52;;;;;;;15.32;100.00;100367.56;5047577;28;20508;-77
2023/05/18 06:04:39;;;;;;;2.92;1.42;;;;;;;15.55;100.00;100371.53;5044099;28;20029;-79
2023/05/18 06:07:05;;;;;;;14.95;1.90;;;;;;;15.59;100.00;100342.34;5035644;28;20034;-74
2023/05/18 06:09:30;;;;;;;2.38;1.25;;;;;;;15.01;100.00;100269.56;5034712;28;20132;-75
2023/05/18 06:11:57;;;;;;;2.63;1.40;;;;;;;15.19;100.00;100269.16;5031034;28;20041;-75
2023/05/18 06:14:23;;;;;;;1.23;0.93;;;;;;;14.53;100.00;100182.44;5040397;28;20052;-76
2023/05/18 06:16:48;;;;;;;1.52;1.00;;;;;;;15.44;100.00;100386.75;5047437;28;20055;-76
2023/05/18 06:19:14;;;;;;;2.72;1.35;;;;;;;15.09;100.00;100370.66;5041683;28;20041;-74
2023/05/18 06:21:39;;;;;;;1.10;0.70;;;;;;;15.65;100.00;100401.31;5026970;28;20091;-74
2023/05/18 06:24:05;;;;;;;2.28;1.25;;;;;;;15.84;100.00;100421.19;5038426;28;20393;-75
2023/05/18 06:26:31;;;;;;;1.95;1.33;;;;;;;16.05;100.00;100411.91;5038446;28;20041;-74
2023/05/18 06:28:57;;;;;;;4.03;0.98;;;;;;;15.18;100.00;100311.47;5037385;28;20046;-74
2023/05/18 06:31:22;;;;;;;2.85;1.27;;;;;;;15.30;100.00;100319.16;5041715;28;20045;-78
2023/05/18 06:33:48;;;;;;;1.98;1.00;;;;;;;15.74;100.00;100425.81;5030830;28;20054;-77
2023/05/18 06:36:15;;;;;;;2.67;1.00;;;;;;;15.86;100.00;100418.53;5026984;28;20180;-77
2023/05/18 06:38:40;;;;;;;3.22;0.80;;;;;;;15.69;100.00;100398.56;5040882;28;20030;-73
2023/05/18 06:41:05;;;;;;;1.33;1.02;;;;;;;15.30;100.00;100389.66;5029839;28;20034;-75
2023/05/18 06:43:31;;;;;;;2.85;1.40;;;;;;;15.60;100.00;100423.41;5026863;28;20069;-74
2023/05/18 06:45:56;;;;;;;6.25;1.08;;;;;;;14.80;100.00;100313.13;5039350;28;20045;-73
2023/05/18 06:48:27;;;;;;;1.70;1.00;;;;;;;15.29;100.00;100440.78;5031940;28;20049;-76
2023/05/18 06:50:53;;;;;;;0.80;0.55;;;;;;;15.26;100.00;100440.84;5027823;28;20617;-75
2023/05/18 06:53:19;;;;;;;3.97;1.15;;;;;;;15.45;100.00;100438.72;5030673;28;20369;-77
2023/05/18 06:55:45;;;;;;;3.95;1.10;;;;;;;15.50;100.00;100420.97;5035532;28;20188;-74
2023/05/18 06:58:11;;;;;;;5.10;2.10;;;;;;;15.24;100.00;100326.31;5040844;28;20493;-75
2023/05/18 07:00:38;;;;;;;4.03;1.65;;;;;;;15.10;100.00;100330.16;5038217;28;20079;-73
2023/05/18 07:03:03;;;;;;;1.35;0.73;;;;;;;15.25;100.00;100331.59;5031420;28;20140;-77
2023/05/18 07:05:29;;;;;;;4.50;1.70;;;;;;;15.59;100.00;100382.00;5036166;28;20498;-75
2023/05/18 07:07:54;;;;;;;4.13;1.10;;;;;;;15.91;100.00;100440.47;5030523;28;20080;-77
2023/05/18 07:10:21;;;;;;;4.97;2.22;;;;;;;15.58;100.00;100387.31;5032001;28;20156;-74
2023/05/18 07:12:47;;;;;;;5.75;1.27;;;;;;;16.11;100.00;100450.59;5036638;28;20500;-73
2023/05/18 07:15:13;;;;;;;2.83;1.50;;;;;;;15.96;100.00;100457.97;5038359;28;20041;-75
2023/05/18 07:17:38;;;;;;;2.72;1.73;;;;;;;15.40;100.00;100338.31;5035048;28;20044;-75
2023/05/18 07:20:05;;;;;;;4.93;1.75;;;;;;;16.39;100.00;100453.53;5034131;28;20041;-80
2023/05/18 07:22:32;;;;;;;2.35;1.17;;;;;;;16.21;100.00;100460.09;5027792;28;21242;-73
2023/05/18 07:24:57;;;;;;;5.35;1.23;;;;;;;16.23;100.00;100422.09;5037006;28;20041;-76
2023/05/18 07:27:23;;;;;;;4.10;1.20;;;;;;;16.30;100.00;100380.44;5019231;28;20393;-76
2023/05/18 07:29:49;;;;;;;2.70;1.05;;;;;;;16.83;100.00;100438.31;5030877;28;20139;-73
2023/05/18 07:32:15;;;;;;;9.05;1.38;;;;;;;17.28;100.00;100483.13;5028073;28;20150;-73
2023/05/18 07:34:42;;;;;;;1.45;0.85;;;;;;;15.62;100.00;100265.56;5037013;28;20048;-72
2023/05/18 07:37:08;;;;;;;2.10;1.13;;;;;;;17.34;100.00;100469.69;5024344;28;20084;-72
2023/05/18 07:39:34;;;;;;;2.53;1.10;;;;;;;16.76;100.00;100366.03;5037023;28;20111;-74
2023/05/18 07:42:01;;;;;;;3.30;0.90;;;;;;;17.81;100.00;100474.63;5026623;28;20045;-70
2023/05/18 07:44:26;;;;;;;0.80;0.70;;;;;;;16.70;100.00;100309.69;5028617;28;20041;-71
2023/05/18 07:46:52;;;;;;;1.20;0.95;;;;;;;17.49;100.00;100473.72;5030691;28;20416;-73
2023/05/18 07:49:18;;;;;;;4.00;3.00;;;;;;;17.50;100.00;100494.88;5025510;28;20466;-77
2023/05/18 07:51:44;;;;;;;4.05;2.15;;;;;;;17.44;100.00;100460.59;5034524;28;20773;-76
2023/05/18 07:54:10;;;;;;;6.43;1.08;;;;;;;17.27;100.00;100373.50;5022736;28;20068;-73
2023/05/18 07:56:35;;;;;;;1.90;1.00;;;;;;;18.01;100.00;100503.25;5022573;28;20576;-75
2023/05/18 07:59:01;;;;;;;2.20;1.15;;;;;;;17.14;100.00;100392.44;5024524;28;20037;-76
2023/05/18 08:01:28;;;;;;;2.85;1.23;;;;;;;17.27;100.00;100391.22;5015413;28;20111;-75
2023/05/18 08:03:55;;;;;;;2.97;1.63;;;;;;;17.85;100.00;100460.34;5019819;28;20102;-75
2023/05/18 08:06:20;;;;;;;5.28;3.65;;;;;;;18.61;100.00;100501.41;5034532;28;20095;-74
2023/05/18 08:08:46;;;;;;;15.45;8.05;;;;;;;18.92;100.00;100504.88;5021708;28;20432;-74
2023/05/18 08:11:11;;;;;;;6.30;4.70;;;;;;;18.16;100.00;100414.28;5022719;28;20593;-74
2023/05/18 08:13:37;;;;;;;2.28;1.30;;;;;;;17.60;100.00;100388.50;5020949;28;20049;-73
2023/05/18 08:16:03;;;;;;;2.35;1.90;;;;;;;18.20;100.00;100519.53;5024805;28;20465;-74
2023/05/18 08:18:28;;;;;;;5.88;1.70;;;;;;;17.69;100.00;100462.53;5023053;28;20502;-73
2023/05/18 08:20:54;;;;;;;3.30;1.42;;;;;;;17.98;100.00;100514.84;5013379;28;20033;-73
2023/05/18 08:23:20;;;;;;;2.78;1.60;;;;;;;17.80;100.00;100508.22;5023374;28;20064;-75
2023/05/18 08:25:45;;;;;;;4.15;1.30;;;;;;;18.05;100.00;100488.94;5024005;28;20065;-75
2023/05/18 08:28:11;;;;;;;10.85;7.20;;;;;;;18.07;100.00;100495.09;5022026;28;20180;-75
2023/05/18 08:30:36;;;;;;;11.05;6.50;;;;;;;18.31;100.00;100514.75;5021329;28;20045;-76
2023/05/18 08:33:02;;;;;;;5.93;2.92;;;;;;;17.44;100.00;100402.22;5014858;28;20117;-75
2023/05/18 08:35:27;;;;;;;5.85;1.77;;;;;;;18.00;100.00;100473.16;5002098;28;20476;-76
2023/05/18 08:37:53;;;;;;;4.82;2.53;;;;;;;17.87;100.00;100426.69;5018505;28;20054;-74
2023/05/18 08:40:19;;;;;;;26.70;18.85;;;;;;;18.30;100.00;100415.56;5003260;28;20042;-75
2023/05/18 08:43:18;;;;;;;4.85;3.25;;;;;;;18.74;100.00;100522.25;5003721;28;20536;-75
2023/05/18 08:46:17;;;;;;;4.82;2.85;;;;;;;18.78;100.00;100515.09;5007374;28;20085;-76
2023/05/18 08:48:45;;;;;;;6.53;2.08;;;;;;;18.49;100.00;100468.13;5007514;28;20065;-75
2023/05/18 08:51:13;;;;;;;9.43;4.32;;;;;;;18.97;100.00;100507.38;5004195;28;20126;-75
2023/05/18 08:53:39;;;;;;;2.58;1.73;;;;;;;18.19;100.00;100383.19;4999813;28;20052;-76
2023/05/18 08:56:05;;;;;;;7.43;4.15;;;;;;;18.88;100.00;100481.94;5001502;28;20114;-76
2023/05/18 08:58:36;;;;;;;3.08;1.27;;;;;;;18.67;100.00;100406.41;5003498;28;20061;-75
2023/05/18 09:01:03;;;;;;;1.45;0.85;;;;;;;19.09;100.00;100495.47;5007427;28;20111;-76
2023/05/18 09:03:29;;;;;;;2.78;1.65;;;;;;;19.23;100.00;100500.31;5007279;28;20049;-77
2023/05/18 09:05:55;;;;;;;4.10;1.75;;;;;;;18.71;100.00;100397.41;5005189;28;20136;-75
2023/05/18 09:08:22;;;;;;;3.47;2.20;;;;;;;19.59;100.00;100501.66;5002618;28;20074;-75
2023/05/18 09:10:49;;;;;;;18.75;11.93;;;;;;;20.02;100.00;100467.31;4999790;28;20536;-75
2023/05/18 09:13:20;;;;;;;11.10;6.55;;;;;;;20.26;100.00;100497.44;5007480;28;20065;-74
2023/05/18 09:15:45;;;;;;;4.43;3.22;;;;;;;19.73;100.00;100444.41;5008050;28;20131;-74
2023/05/18 09:18:11;;;;;;;4.93;2.40;;;;;;;20.07;100.00;100499.97;4999366;28;20137;-74
2023/05/18 09:20:37;;;;;;;2.00;1.27;;;;;;;19.93;100.00;100502.28;5006551;28;20803;-74
2023/05/18 09:23:04;;;;;;;3.20;1.23;;;;;;;19.45;100.00;100393.97;5003896;28;20084;-76
2023/05/18 09:25:31;;;;;;;11.00;5.72;;;;;;;19.90;100.00;100483.72;4998284;28;20050;-75
2023/05/18 09:27:56;;;;;;;3.53;1.35;;;;;;;20.22;100.00;100413.22;5002671;28;20049;-75
2023/05/18 09:30:24;;;;;;;2.65;1.75;;;;;;;19.57;100.00;100375.75;5007895;28;20041;-76
2023/05/18 09:32:51;;;;;;;3.58;1.65;;;;;;;19.71;100.00;100393.00;5006219;28;20113;-74
2023/05/18 09:35:17;;;;;;;2.78;1.55;;;;;;;20.13;100.00;100498.84;4999843;28;21460;-76
2023/05/18 09:37:43;;;;;;;2.88;1.55;;;;;;;20.11;100.00;100484.72;5001791;28;20140;-76
2023/05/18 09:40:09;;;;;;;5.20;2.00;;;;;;;19.52;100.00;100414.09;5003532;28;20072;-75
2023/05/18 09:42:36;;;;;;;4.50;1.90;;;;;;;19.46;100.00;100407.22;5001026;28;20060;-75
2023/05/18 09:45:03;;;;;;;2.00;1.40;;;;;;;19.25;100.00;100408.88;5004640;28;20465;-75
2023/05/18 09:47:29;;;;;;;3.10;1.42;;;;;;;19.59;100.00;100471.50;5009011;28;20083;-75
2023/05/18 09:49:57;;;;;;;3.13;1.77;;;;;;;19.81;100.00;100480.50;5005979;28;20045;-75
2023/05/18 09:52:23;;;;;;;3.35;2.13;;;;;;;19.69;100.00;100409.06;4996396;28;20564;-76
2023/05/18 09:54:59;;;;;;;5.10;3.30;;;;;;;20.59;100.00;100446.44;5014850;28;20038;-75
2023/05/18 09:57:25;;;;;;;7.05;3.85;;;;;;;21.26;100.00;100486.28;5026289;28;20037;-76
2023/05/18 10:00:07;;;;;;;3.40;2.28;;;;;;;20.13;90.06;100305.22;5025499;28;20037;-75
2023/05/18 10:02:37;;;;;;;3.38;2.03;;;;;;;20.89;78.69;100494.97;5022544;28;20053;-75
2023/05/18 10:05:03;;;;;;;4.10;2.40;;;;;;;21.34;93.03;100490.41;5026922;28;20064;-75
2023/05/18 10:07:29;;;;;;;6.72;3.92;;;;;;;20.66;95.04;100383.91;5020280;28;20049;-76
2023/05/18 10:10:02;;;;;;;5.10;2.03;;;;;;;21.01;82.39;100494.44;5026526;28;20048;-75
2023/05/18 10:12:27;;;;;;;4.18;2.38;;;;;;;20.42;83.48;100383.13;5018857;28;20052;-75
2023/05/18 10:14:53;;;;;;;3.97;2.47;;;;;;;20.93;84.88;100471.69;5026053;28;20551;-75
2023/05/18 10:17:19;;;;;;;5.13;2.88;;;;;;;20.16;77.89;100426.81;5027281;28;20034;-75
2023/05/18 10:19:47;;;;;;;6.57;3.33;;;;;;;20.34;80.00;100463.34;5021361;28;20163;-75
2023/05/18 10:22:18;;;;;;;4.47;2.72;;;;;;;20.73;80.23;100486.72;5024452;28;20699;-75
2023/05/18 10:24:48;;;;;;;4.35;2.42;;;;;;;20.76;88.60;100470.59;5021666;28;20034;-76
2023/05/18 10:27:18;;;;;;;3.65;2.72;;;;;;;20.92;74.58;100484.16;5019574;28;20205;-75
2023/05/18 10:29:45;;;;;;;4.60;2.58;;;;;;;20.68;73.09;100447.84;5024092;28;20039;-72
2023/05/18 10:32:12;;;;;;;5.07;2.40;;;;;;;20.41;80.99;100376.88;5035216;28;20448;-73
2023/05/18 10:34:37;;;;;;;4.40;2.83;;;;;;;21.31;78.00;100475.41;5035173;28;20461;-72
2023/05/18 10:37:05;;;;;;;9.13;3.03;;;;;;;20.69;69.85;100391.78;5023338;28;20041;-74
2023/05/18 10:39:32;;;;;;;4.00;2.22;;;;;;;21.10;83.70;100386.47;5016931;28;20050;-73
2023/05/18 10:41:59;;;;;;;4.88;2.63;;;;;;;21.23;70.49;100450.81;5021786;28;20044;-76
2023/05/18 10:44:24;;;;;;;4.07;2.25;;;;;;;20.90;62.94;100365.13;5025634;28;20065;-74
2023/05/18 10:46:50;;;;;;;4.47;2.55;;;;;;;21.24;62.71;100359.16;5022810;28;20355;-73
2023/05/18 10:49:18;;;;;;;14.60;3.83;;;;;;;22.33;65.71;100445.81;5024430;28;20046;-74
2023/05/18 10:51:46;;;;;;;3.03;2.05;;;;;;;21.89;69.82;100378.44;5023359;28;20049;-73
2023/05/18 10:54:13;;;;;;;3.63;2.03;;;;;;;20.91;75.26;100279.72;5024935;28;20037;-73
2023/05/18 10:56:46;;;;;;;5.97;2.53;;;;;;;21.24;75.91;100385.84;5016985;28;20029;-75
2023/05/18 10:59:12;;;;;;;;;;;;;;;22.00;62.77;100461.63;5039010;28;20696;-74
2023/05/18 11:01:40;;;;;;;3.53;2.38;;;;;;;22.14;68.61;100459.16;5025643;28;19976;-75
2023/05/18 11:04:06;;;;;;;5.05;2.40;;;;;;;21.39;61.32;100338.91;5015881;28;20437;-74
2023/05/18 11:06:33;;;;;;;5.28;2.58;;;;;;;22.72;57.75;100435.91;5019450;28;20059;-74
2023/05/18 11:09:00;;;;;;;3.15;2.15;;;;;;;22.29;59.99;100432.69;5025688;28;20029;-74
2023/05/18 11:11:29;;;;;;;7.45;2.65;;;;;;;22.44;59.49;100418.56;5016541;28;20037;-74
2023/05/18 11:14:02;;;;;;;3.85;2.42;;;;;;;21.02;56.39;100360.09;5018333;28;20153;-73
2023/05/18 11:16:35;;;;;;;5.15;2.47;;;;;;;21.27;57.04;100447.09;5021102;28;20049;-74